Main page
METAR-TAF:

METAR-TAF

Airports :

Glasgow Prestwick Airport

Glasgow-Prestwick, Scotland

latitude: 55-30N, longitude: 004-35W, elevation: 20 m

Current weather observation

The report was made 25 minutes ago, at 15:20 UTC
Wind 15 kt from the West/Northwest
Temperature 12°C
Humidity 71%
Pressure 1027 hPa
Visibility 10 km or more
Few clouds at a height of 1200 ft
Broken clouds at a height of 2600 ft

METAR: EGPK 211520Z 30015KT 9999 FEW012 BKN026 12/07 Q1027

Time: 16:45 (15:45 UTC)

Forecast

The report was made 4 hours and 51 minutes ago, at 10:54 UTC
Forecast valid from 21 at 12 UTC to 22 at 12 UTC
Wind 9 kt from the West/Southwest
Visibility 10 km or more
Scattered clouds at a height of 2500 ft
Temporary
from 21 at 12 UTC to 21 at 14 UTC
Visibility: 7000 m
Broken clouds at a height of 1200 ft
rain
Probability 30% :
Temporary
from 21 at 12 UTC to 22 at 12 UTC
Wind 15 kt from the West with gusts up to 25 kt

TAF: EGPK 211054Z 2112/2212 25009KT 9999 SCT025 TEMPO 2112/2114 7000 RA BKN012 PROB30 TEMPO 2112/2212 27015G25KT

Weather observations and forecasts of more than 4000 airports (METAR and TAF reports).

The available stations are represented by yellow and red dots on the map.

Hover mouse over dot to see the name of the station.

Then click to see weather observations and forecasts.

To change the map : click on the green buttons with a black cross to zoom in, on the green button with a dash to zoom out, or on the green arrows for adjacent maps.


METAR-TAF: